• Join FlightAware (Why Join?)
  • Login
  • US Flag 
09:23AM EDT


 

Airport Tracker/Info


-or-


 

Live Flight TrackerFlight Track Log ✈ OPT332 ✈ 17-Nov-2013 ✈ KCID - KMKC

Flight Track Log - Related Links

Times and Time Zones

All times are in EST time to prevent confusion due to time zone crossing. See the OPT332 flight status page for this flight to view local times or setup timezone preferences in your user account.

Time Position Orientation Groundspeed Altitude Reporting Facility
EST Latitude Longitude Course Direction KTS MPH feet Rate Location/Type
09:05AM 41.8569 -91.6706 216° Southwest 191 220 3,900  Level Chicago Center
09:06AM 41.8147 -91.6858 195° South 178 205 8,400 3,480 Climbing Chicago Center
09:11AM 41.3330 -92.3121 216° Southwest  Level Estimated
09:11AM 41.7673 -91.7316 195° South 290 334 22,000  Level FlightAware ADS-B
09:12AM 41.4950 -92.0155 218° Southwest 290 334 22,000  Level FlightAware ADS-B
09:13AM 41.4619 -92.0497 218° Southwest 291 335 22,000  Level FlightAware ADS-B
09:14AM 41.4244 -92.0886 218° Southwest 290 334 22,000  Level Chicago Center
09:15AM 41.3619 -92.1539 218° Southwest 288 331 22,000  Level Chicago Center
09:16AM 41.2997 -92.2172 217° Southwest 284 327 22,000  Level Chicago Center
09:17AM 41.2297 -92.2869 217° Southwest 280 322 22,000  Level Chicago Center
09:18AM 41.1694 -92.3497 218° Southwest 279 321 22,000  Level Chicago Center
09:19AM 41.1081 -92.4122 217° Southwest 280 322 22,000  Level Chicago Center
09:20AM 41.0481 -92.4747 218° Southwest 277 319 22,000  Level Chicago Center
09:21AM 40.9747 -92.5461 216° Southwest 276 318 22,000  Level Chicago Center
09:22AM 40.9153 -92.6061 217° Southwest 273 314 22,000  Level Chicago Center
09:23AM 40.8561 -92.6658 217° Southwest 271 312 22,000  Level Chicago Center
09:24AM 40.7969 -92.7269 218° Southwest 272 313 22,000  Level Chicago Center
09:25AM 40.7372 -92.7858 217° Southwest 272 313 22,000  Level Chicago Center
09:26AM 40.6786 -92.8442 217° Southwest 268 308 22,000  Level Chicago Center
09:27AM 40.6081 -92.9164 218° Southwest 271 312 22,000  Level Chicago Center
09:28AM 40.5586 -92.9639 216° Southwest 272 313 22,000  Level Kansas City Center
09:29AM 40.4933 -93.0319 218° Southwest 270 311 22,000  Level Kansas City Center
09:30AM 40.4419 -93.0822 217° Southwest 272 313 22,000  Level Kansas City Center
09:31AM 40.3703 -93.1528 217° Southwest 272 313 22,000  Level Kansas City Center
09:32AM 40.3117 -93.2119 218° Southwest 270 311 22,000  Level Kansas City Center
09:33AM 40.2517 -93.2700 216° Southwest 271 312 22,000  Level Kansas City Center
09:34AM 40.1919 -93.3289 217° Southwest 271 312 22,000  Level Kansas City Center
09:35AM 40.1322 -93.3875 217° Southwest 270 311 22,000  Level Kansas City Center
09:36AM 40.0731 -93.4461 217° Southwest 270 311 22,000 -420 Level Kansas City Center
09:37AM 40.0142 -93.5028 216° Southwest 268 308 21,200 -1,140 Descending Kansas City Center
09:38AM 39.9506 -93.5633 216° Southwest 243 280 19,700 -1,680 Descending Kansas City Center
09:39AM 39.9003 -93.6136 218° Southwest 232 267 17,900 -1,500 Descending Kansas City Center
09:40AM 39.8428 -93.6711 218° Southwest 253 291 16,700 -1,260 Descending Kansas City Center
09:41AM 39.7833 -93.7278 216° Southwest 265 305 15,400 -1,320 Descending Kansas City Center
09:42AM 39.7264 -93.7833 217° Southwest 264 304 14,100 -1,380 Descending Kansas City Center
09:43AM 39.6767 -93.8619 231° Southwest 253 291 12,700 -1,320 Descending Kansas City Center
09:44AM 39.6369 -93.9247 231° Southwest 238 274 11,400 -1,380 Descending Kansas City Center
09:45AM 39.5892 -93.9964 229° Southwest 236 272 9,900 -1,380 Descending Kansas City Center
09:46AM 39.5461 -94.0597 229° Southwest 242 278 8,700 -1,260 Descending Kansas City Center
09:47AM 39.5014 -94.1208 227° Southwest 243 280 7,400 -1,560 Descending Kansas City Center
09:48AM 39.4503 -94.1858 224° Southwest 230 265 5,600 -1,620 Descending Kansas City Center
09:49AM 39.4097 -94.2375 225° Southwest 216 249 4,100 -840 Descending Kansas City Center
09:50AM 39.3611 -94.2989 224° Southwest 218 251 4,000 -480 Descending Kansas City Center
09:51AM 39.3169 -94.3536 224° Southwest 224 258 3,200 -540 Descending Kansas City Center
09:52AM 39.2722 -94.4075 223° Southwest 231 266 3,000 -120 Descending Kansas City Center
09:53AM 39.2094 -94.4597 213° Southwest 255 293 3,000  Level Kansas City Center
09:54AM 39.1447 -94.4614 181° South 243 280 3,000  Level Kansas City Center
09:55AM 39.1397 -94.5142 263° West 158 182 3,000 -420 Level Kansas City Center
09:56AM 39.1369 -94.5739 267° West 149 171 2,200 -420 Descending Kansas City Center
09:57AM 39.1350 -94.6161 267° West 127 146 2,200 -300 Level Kansas City Center
09:58AM 39.0972 -94.6389 205° Southwest 144 166 1,700 -480 Descending Kansas City Center
09:59AM 39.0922 -94.6042 101° East 126 145 1,200 -420 Descending Kansas City Center
10:01AM 39.1258 -94.5906 17° North 116 133 900 -300 Descending Kansas City Center
10:02AM 39.1229 -94.5928 180° South  Level Estimated